Time;durP1;ratioP1;P1;durP2;ratioP2;P2;SDS_P1;SDS_P2;PMS_P1;PMS_P2;Temp;Humidity;BMP_temperature;BMP_pressure;BME280_temperature;BME280_humidity;BME280_pressure;Samples;Min_cycle;Max_cycle;Signal;HPM_P1;HPM_P2
2021/08/31 00:02:08;;;;;;;20.35;8.18;;;;;;;;;;5011981;28;20030;-66
2021/08/31 00:04:34;;;;;;;16.17;7.53;;;;;;;;;;4997542;28;20033;-66
2021/08/31 00:07:00;;;;;;;19.15;7.43;;;;;;;;;;4997429;28;20026;-66
2021/08/31 00:09:26;;;;;;;17.15;6.90;;;;;;;;;;5015337;28;20034;-66
2021/08/31 00:11:52;;;;;;;24.45;7.85;;;;;;;;;;4997210;28;20018;-66
2021/08/31 00:14:18;;;;;;;15.88;7.60;;;;;;;;;;5015005;28;20030;-66
2021/08/31 00:16:45;;;;;;;23.60;9.68;;;;;;;;;;5014603;28;20052;-66
2021/08/31 00:19:11;;;;;;;20.75;8.25;;;;;;;;;;4997580;28;20018;-66
2021/08/31 00:21:37;;;;;;;22.05;8.38;;;;;;;;;;5018540;28;20021;-67
2021/08/31 00:24:03;;;;;;;16.60;7.57;;;;;;;;;;5015884;28;20018;-66
2021/08/31 00:26:29;;;;;;;15.95;7.53;;;;;;;;;;4996128;28;20128;-66
2021/08/31 00:28:55;;;;;;;21.23;9.13;;;;;;;;;;5014267;28;20029;-66
2021/08/31 00:31:21;;;;;;;22.10;8.88;;;;;;;;;;5014587;28;20053;-66
2021/08/31 00:33:46;;;;;;;21.70;7.80;;;;;;;;;;5008685;28;20101;-66
2021/08/31 00:36:12;;;;;;;22.15;8.38;;;;;;;;;;5013383;28;20025;-67
2021/08/31 00:38:38;;;;;;;18.33;7.25;;;;;;;;;;4991598;28;20057;-66
2021/08/31 00:41:04;;;;;;;20.38;8.27;;;;;;;;;;5014715;28;20022;-66
2021/08/31 00:43:42;;;;;;;18.35;7.93;;;;;;;;;;5014517;28;20108;-66
2021/08/31 00:46:08;;;;;;;19.08;8.25;;;;;;;;;;5014557;28;20030;-66
2021/08/31 00:48:34;;;;;;;14.68;7.90;;;;;;;;;;5010254;28;20125;-66
2021/08/31 00:51:00;;;;;;;18.35;7.43;;;;;;;;;;5014643;28;20538;-67
2021/08/31 00:53:26;;;;;;;20.38;8.50;;;;;;;;;;5010709;28;20085;-66
2021/08/31 00:55:51;;;;;;;19.40;7.68;;;;;;;;;;5014147;28;20061;-66
2021/08/31 00:58:17;;;;;;;29.45;8.68;;;;;;;;;;5020085;28;20474;-66
2021/08/31 01:00:43;;;;;;;20.80;8.45;;;;;;;;;;5013938;28;20017;-66
2021/08/31 01:03:09;;;;;;;16.95;7.30;;;;;;;;;;5008665;28;20025;-67
2021/08/31 01:05:35;;;;;;;21.52;7.10;;;;;;;;;;4999316;28;20390;-66
2021/08/31 01:08:01;;;;;;;16.30;7.18;;;;;;;;;;5020947;28;20065;-66
2021/08/31 01:10:27;;;;;;;14.80;6.85;;;;;;;;;;4995913;28;20028;-66
2021/08/31 01:12:54;;;;;;;17.48;7.40;;;;;;;;;;5014487;28;20022;-67
2021/08/31 01:15:21;;;;;;;15.85;7.28;;;;;;;;;;5013214;28;20089;-66
2021/08/31 01:17:47;;;;;;;18.27;7.78;;;;;;;;;;5017176;28;20047;-67
2021/08/31 01:20:13;;;;;;;16.02;7.53;;;;;;;;;;5013384;28;20022;-66
2021/08/31 01:22:39;;;;;;;19.33;7.32;;;;;;;;;;4996263;28;20041;-66
2021/08/31 01:25:06;;;;;;;20.17;8.57;;;;;;;;;;5009810;28;20030;-66
2021/08/31 01:27:32;;;;;;;16.75;7.85;;;;;;;;;;5011086;28;20482;-67
2021/08/31 01:29:58;;;;;;;17.30;7.68;;;;;;;;;;5013853;28;20224;-66
2021/08/31 01:32:24;;;;;;;18.00;8.73;;;;;;;;;;5011972;28;20475;-66
2021/08/31 01:34:50;;;;;;;14.63;7.68;;;;;;;;;;5013625;28;20367;-66
2021/08/31 01:37:17;;;;;;;20.10;7.57;;;;;;;;;;5013923;28;20018;-66
2021/08/31 01:39:43;;;;;;;19.25;7.80;;;;;;;;;;4989829;28;20018;-66
2021/08/31 01:42:09;;;;;;;19.15;7.68;;;;;;;;;;5013704;28;20033;-65
2021/08/31 01:44:35;;;;;;;19.80;9.40;;;;;;;;;;5014961;28;20555;-65
2021/08/31 01:47:01;;;;;;;22.65;7.93;;;;;;;;;;5013177;28;20021;-65
2021/08/31 01:49:27;;;;;;;16.88;7.68;;;;;;;;;;5013401;28;20099;-65
2021/08/31 01:51:53;;;;;;;16.50;6.65;;;;;;;;;;5009565;28;20022;-66
2021/08/31 01:54:19;;;;;;;14.38;8.32;;;;;;;;;;4998268;28;20532;-66
2021/08/31 01:56:45;;;;;;;15.85;6.80;;;;;;;;;;5012787;28;20108;-66
2021/08/31 01:59:11;;;;;;;22.13;8.15;;;;;;;;;;5012640;28;20029;-66
2021/08/31 02:01:38;;;;;;;22.63;7.60;;;;;;;;;;5016274;28;20030;-66
2021/08/31 02:04:04;;;;;;;24.75;8.02;;;;;;;;;;5019983;28;20027;-67
2021/08/31 02:06:30;;;;;;;12.98;6.45;;;;;;;;;;5012669;28;20033;-66
2021/08/31 02:08:56;;;;;;;16.45;7.22;;;;;;;;;;4999964;28;20022;-66
2021/08/31 02:11:22;;;;;;;20.88;7.97;;;;;;;;;;5017899;28;20479;-66
2021/08/31 02:13:48;;;;;;;17.15;7.00;;;;;;;;;;5012633;28;20084;-66
2021/08/31 02:16:14;;;;;;;22.50;8.50;;;;;;;;;;5021239;28;20026;-66
2021/08/31 02:18:41;;;;;;;14.80;6.47;;;;;;;;;;5012536;28;20076;-66
2021/08/31 02:21:07;;;;;;;20.38;8.35;;;;;;;;;;5013036;28;20174;-66
2021/08/31 02:23:33;;;;;;;16.15;7.00;;;;;;;;;;5015144;28;20022;-66
2021/08/31 02:25:59;;;;;;;20.92;7.63;;;;;;;;;;5014890;28;20057;-66
2021/08/31 02:28:26;;;;;;;18.00;7.13;;;;;;;;;;5009559;28;20081;-66
2021/08/31 02:30:51;;;;;;;16.80;6.18;;;;;;;;;;5013431;28;20478;-66
2021/08/31 02:33:18;;;;;;;14.02;6.53;;;;;;;;;;5009975;28;20097;-67
2021/08/31 02:35:44;;;;;;;15.00;6.70;;;;;;;;;;5010727;28;20025;-66
2021/08/31 02:38:10;;;;;;;15.20;6.18;;;;;;;;;;5012798;28;20022;-66
2021/08/31 02:40:36;;;;;;;13.35;6.20;;;;;;;;;;5017340;28;20482;-63
2021/08/31 02:43:01;;;;;;;18.45;7.10;;;;;;;;;;5007826;28;20438;-65
2021/08/31 02:45:27;;;;;;;15.05;6.53;;;;;;;;;;5022326;28;20047;-65
2021/08/31 02:47:53;;;;;;;15.55;5.60;;;;;;;;;;5013733;28;20463;-65
2021/08/31 02:50:19;;;;;;;18.35;7.32;;;;;;;;;;5012119;28;20108;-65
2021/08/31 02:52:45;;;;;;;19.48;8.23;;;;;;;;;;5011893;28;20032;-65
2021/08/31 02:55:12;;;;;;;16.45;6.88;;;;;;;;;;5019976;28;20108;-66
2021/08/31 02:57:38;;;;;;;18.40;8.75;;;;;;;;;;5016974;28;20049;-66
2021/08/31 03:00:05;;;;;;;17.17;6.50;;;;;;;;;;5015922;28;20382;-65
2021/08/31 03:02:31;;;;;;;14.48;6.78;;;;;;;;;;4993349;28;20426;-66
2021/08/31 03:04:56;;;;;;;18.63;7.53;;;;;;;;;;5012203;28;20018;-66
2021/08/31 03:07:23;;;;;;;17.23;7.70;;;;;;;;;;5005878;28;20030;-66
2021/08/31 03:09:49;;;;;;;16.35;6.63;;;;;;;;;;5012497;28;20379;-66
2021/08/31 03:12:15;;;;;;;16.35;6.95;;;;;;;;;;5012040;28;20094;-66
2021/08/31 03:14:41;;;;;;;17.92;6.57;;;;;;;;;;5016586;28;20024;-66
2021/08/31 03:17:07;;;;;;;23.38;9.32;;;;;;;;;;5010069;28;20022;-66
2021/08/31 03:19:33;;;;;;;20.65;7.75;;;;;;;;;;5012876;28;20022;-66
2021/08/31 03:22:00;;;;;;;17.45;6.55;;;;;;;;;;5010610;28;20025;-66
2021/08/31 03:24:27;;;;;;;20.40;9.27;;;;;;;;;;5013119;28;20026;-65
2021/08/31 03:26:53;;;;;;;19.60;7.65;;;;;;;;;;5016684;28;20107;-66
2021/08/31 03:29:20;;;;;;;17.92;7.38;;;;;;;;;;5007762;28;20030;-65
2021/08/31 03:31:46;;;;;;;19.90;8.20;;;;;;;;;;5011882;28;20028;-66
2021/08/31 03:34:12;;;;;;;18.00;8.70;;;;;;;;;;4989674;28;20029;-66
2021/08/31 03:36:38;;;;;;;18.70;7.22;;;;;;;;;;5004615;28;20033;-66
2021/08/31 03:39:04;;;;;;;15.45;7.43;;;;;;;;;;5021133;28;20463;-66
2021/08/31 03:41:30;;;;;;;26.48;8.95;;;;;;;;;;5015945;28;20479;-66
2021/08/31 03:43:56;;;;;;;17.27;7.78;;;;;;;;;;5015751;28;20523;-66
2021/08/31 03:46:22;;;;;;;17.83;7.78;;;;;;;;;;4995643;28;20066;-65
2021/08/31 03:48:48;;;;;;;21.55;7.35;;;;;;;;;;5020177;28;20064;-66
2021/08/31 03:51:14;;;;;;;20.65;7.28;;;;;;;;;;5017348;28;20030;-66
2021/08/31 03:53:40;;;;;;;22.15;8.43;;;;;;;;;;5015935;28;20026;-66
2021/08/31 03:56:06;;;;;;;16.17;7.55;;;;;;;;;;5009064;28;20029;-66
2021/08/31 03:58:32;;;;;;;16.75;7.00;;;;;;;;;;5014565;28;20471;-66
2021/08/31 04:00:58;;;;;;;16.80;6.90;;;;;;;;;;4997673;28;20041;-66
2021/08/31 04:03:24;;;;;;;21.45;7.43;;;;;;;;;;5008026;28;20022;-65
2021/08/31 04:05:50;;;;;;;19.45;6.93;;;;;;;;;;5011309;28;20030;-65
2021/08/31 04:08:16;;;;;;;18.23;7.70;;;;;;;;;;5004950;28;20029;-65
2021/08/31 04:10:42;;;;;;;15.98;6.88;;;;;;;;;;5019186;28;20032;-66
2021/08/31 04:13:10;;;;;;;14.43;6.88;;;;;;;;;;5022322;28;20030;-65
2021/08/31 04:15:36;;;;;;;21.27;7.47;;;;;;;;;;4997018;28;20026;-66
2021/08/31 04:18:02;;;;;;;18.05;7.47;;;;;;;;;;5010611;28;20032;-66
2021/08/31 04:20:28;;;;;;;18.35;7.07;;;;;;;;;;5007705;28;20076;-66
2021/08/31 04:22:54;;;;;;;15.48;6.65;;;;;;;;;;5014930;28;20018;-66
2021/08/31 04:25:20;;;;;;;18.33;7.50;;;;;;;;;;5016418;28;20044;-65
2021/08/31 04:27:46;;;;;;;18.90;7.72;;;;;;;;;;5015156;28;20125;-65
2021/08/31 04:30:13;;;;;;;23.65;7.53;;;;;;;;;;5000808;28;20029;-65
2021/08/31 04:32:39;;;;;;;21.98;7.53;;;;;;;;;;5016498;28;20033;-64
2021/08/31 04:35:05;;;;;;;19.55;8.75;;;;;;;;;;5015543;28;20029;-66
2021/08/31 04:37:31;;;;;;;15.65;7.60;;;;;;;;;;5015815;28;20022;-66
2021/08/31 04:39:58;;;;;;;24.58;7.63;;;;;;;;;;5020928;28;20125;-66
2021/08/31 04:42:24;;;;;;;20.08;6.97;;;;;;;;;;5019473;28;20030;-66
2021/08/31 04:44:50;;;;;;;16.65;8.20;;;;;;;;;;5015746;28;20029;-66
2021/08/31 04:47:16;;;;;;;20.25;7.18;;;;;;;;;;5016077;28;20030;-66
2021/08/31 04:49:42;;;;;;;18.35;7.78;;;;;;;;;;4988508;28;20479;-66
2021/08/31 04:52:09;;;;;;;22.38;6.20;;;;;;;;;;4996632;28;20045;-66
2021/08/31 04:54:35;;;;;;;17.92;6.13;;;;;;;;;;5020444;28;20029;-66
2021/08/31 04:57:01;;;;;;;19.38;6.57;;;;;;;;;;5018183;28;20022;-66
2021/08/31 04:59:27;;;;;;;13.88;5.85;;;;;;;;;;5004798;28;20056;-66
2021/08/31 05:01:53;;;;;;;21.08;7.47;;;;;;;;;;5013086;28;20071;-65
2021/08/31 05:04:19;;;;;;;14.88;6.00;;;;;;;;;;5021281;28;20026;-66
2021/08/31 05:06:45;;;;;;;17.80;6.15;;;;;;;;;;5012295;28;20445;-67
2021/08/31 05:09:11;;;;;;;18.55;7.15;;;;;;;;;;5013186;28;20026;-66
2021/08/31 05:11:37;;;;;;;16.33;5.82;;;;;;;;;;4997577;28;20032;-66
2021/08/31 05:14:03;;;;;;;16.90;5.28;;;;;;;;;;5014650;28;20394;-65
2021/08/31 05:16:29;;;;;;;22.15;6.30;;;;;;;;;;4994920;28;20033;-66
2021/08/31 05:18:56;;;;;;;16.77;6.40;;;;;;;;;;5013868;28;20018;-66
2021/08/31 05:21:22;;;;;;;14.15;4.50;;;;;;;;;;5013953;28;20109;-66
2021/08/31 05:23:48;;;;;;;14.05;5.68;;;;;;;;;;5011226;28;20135;-66
2021/08/31 05:26:14;;;;;;;11.65;5.45;;;;;;;;;;5013759;28;20027;-66
2021/08/31 05:28:39;;;;;;;16.00;6.05;;;;;;;;;;5044783;22;20065;-69
2021/08/31 05:31:05;;;;;;;14.70;5.10;;;;;;;;;;5035813;28;20045;-69
2021/08/31 05:33:31;;;;;;;14.27;5.00;;;;;;;;;;5026871;28;20103;-69
2021/08/31 05:35:57;;;;;;;16.10;4.20;;;;;;;;;;5030642;28;20470;-69
2021/08/31 05:38:23;;;;;;;19.77;5.18;;;;;;;;;;5031034;28;20028;-69
2021/08/31 05:40:49;;;;;;;12.95;4.47;;;;;;;;;;5031008;28;20028;-69
2021/08/31 05:43:15;;;;;;;12.18;4.82;;;;;;;;;;5031528;28;20029;-69
2021/08/31 05:45:41;;;;;;;11.35;4.47;;;;;;;;;;5008800;28;20029;-70
2021/08/31 05:48:07;;;;;;;11.90;3.10;;;;;;;;;;5026738;28;20474;-69
2021/08/31 05:50:33;;;;;;;9.63;3.08;;;;;;;;;;5005864;28;20029;-69
2021/08/31 05:52:59;;;;;;;17.30;3.33;;;;;;;;;;5018761;28;20025;-69
2021/08/31 05:55:25;;;;;;;11.98;3.60;;;;;;;;;;5029072;28;20033;-69
2021/08/31 05:57:51;;;;;;;10.20;3.25;;;;;;;;;;5026738;28;20033;-69
2021/08/31 06:00:17;;;;;;;12.00;3.13;;;;;;;;;;5029691;28;20097;-69
2021/08/31 06:02:44;;;;;;;10.68;3.58;;;;;;;;;;5022447;28;20049;-69
2021/08/31 06:05:10;;;;;;;11.15;4.45;;;;;;;;;;5025085;28;20029;-69
2021/08/31 06:07:38;;;;;;;8.40;3.55;;;;;;;;;;5019564;28;20505;-70
2021/08/31 06:10:05;;;;;;;13.57;3.50;;;;;;;;;;5011424;28;20033;-70
2021/08/31 06:12:31;;;;;;;14.45;2.88;;;;;;;;;;5011435;28;20033;-70
2021/08/31 06:14:57;;;;;;;10.82;3.05;;;;;;;;;;5024323;28;20478;-69
2021/08/31 06:17:23;;;;;;;11.18;2.95;;;;;;;;;;5026986;28;20500;-68
2021/08/31 06:19:49;;;;;;;9.95;2.55;;;;;;;;;;5005273;28;20348;-69
2021/08/31 06:22:15;;;;;;;9.40;3.33;;;;;;;;;;5008626;28;20068;-69
2021/08/31 06:24:41;;;;;;;6.03;2.22;;;;;;;;;;5030232;28;20365;-69
2021/08/31 06:27:07;;;;;;;11.35;4.15;;;;;;;;;;5024487;28;20026;-69
2021/08/31 06:29:33;;;;;;;13.68;4.25;;;;;;;;;;5030106;28;20032;-69
2021/08/31 06:31:59;;;;;;;5.70;2.75;;;;;;;;;;5029973;28;20044;-68
2021/08/31 06:34:25;;;;;;;13.27;3.30;;;;;;;;;;5027554;28;20034;-69
2021/08/31 06:36:51;;;;;;;7.40;2.85;;;;;;;;;;5029995;28;20029;-69
2021/08/31 06:39:17;;;;;;;12.80;4.43;;;;;;;;;;5032487;28;20019;-69
2021/08/31 06:41:44;;;;;;;9.32;3.38;;;;;;;;;;5025363;28;20351;-69
2021/08/31 06:44:10;;;;;;;11.18;3.92;;;;;;;;;;5029790;28;20032;-68
2021/08/31 06:46:36;;;;;;;8.85;2.63;;;;;;;;;;5009272;28;20018;-68
2021/08/31 06:49:02;;;;;;;9.95;3.75;;;;;;;;;;5024875;28;20048;-68
2021/08/31 06:51:28;;;;;;;7.53;2.88;;;;;;;;;;5029568;28;20067;-69
2021/08/31 06:53:54;;;;;;;14.25;3.40;;;;;;;;;;5024695;28;20532;-69
2021/08/31 06:56:20;;;;;;;10.95;3.65;;;;;;;;;;5015868;28;20030;-69
2021/08/31 06:58:47;;;;;;;11.13;3.08;;;;;;;;;;5022362;28;20018;-69
2021/08/31 07:01:13;;;;;;;10.63;2.80;;;;;;;;;;5024235;28;20071;-70
2021/08/31 07:03:39;;;;;;;12.38;2.90;;;;;;;;;;5010779;28;20079;-70
2021/08/31 07:06:05;;;;;;;12.00;2.88;;;;;;;;;;5013084;28;20030;-70
2021/08/31 07:08:31;;;;;;;9.90;3.08;;;;;;;;;;5015193;28;20055;-70
2021/08/31 07:10:57;;;;;;;8.52;2.92;;;;;;;;;;5028773;28;20029;-70
2021/08/31 07:13:23;;;;;;;11.77;3.00;;;;;;;;;;5011892;28;20029;-70
2021/08/31 07:15:49;;;;;;;12.00;2.88;;;;;;;;;;5032946;28;20095;-70
2021/08/31 07:18:15;;;;;;;11.88;3.28;;;;;;;;;;5011884;28;20124;-69
2021/08/31 07:20:41;;;;;;;14.38;4.07;;;;;;;;;;5024871;28;20025;-71
2021/08/31 07:23:07;;;;;;;11.23;3.03;;;;;;;;;;5011907;28;20970;-71
2021/08/31 07:25:33;;;;;;;12.30;3.08;;;;;;;;;;5016059;28;20034;-71
2021/08/31 07:27:59;;;;;;;11.57;3.42;;;;;;;;;;4969664;28;20475;-71
2021/08/31 07:30:25;;;;;;;15.50;3.45;;;;;;;;;;4993439;28;20026;-70
2021/08/31 07:32:51;;;;;;;9.25;2.78;;;;;;;;;;4993821;28;20033;-70
2021/08/31 07:35:17;;;;;;;9.60;2.42;;;;;;;;;;4993905;28;20030;-69
2021/08/31 07:37:43;;;;;;;8.00;2.60;;;;;;;;;;4988175;28;20029;-70
2021/08/31 07:40:10;;;;;;;12.55;2.90;;;;;;;;;;4991254;28;20026;-71
2021/08/31 07:42:36;;;;;;;10.13;2.55;;;;;;;;;;4997484;28;20185;-70
2021/08/31 07:45:05;;;;;;;11.13;2.60;;;;;;;;;;4990133;28;20034;-71
2021/08/31 07:47:31;;;;;;;7.60;2.53;;;;;;;;;;4988256;28;20033;-71
2021/08/31 07:49:57;;;;;;;15.65;3.22;;;;;;;;;;4988742;28;20026;-71
2021/08/31 07:52:23;;;;;;;8.23;2.50;;;;;;;;;;5001736;28;20033;-71
2021/08/31 07:54:49;;;;;;;7.35;2.95;;;;;;;;;;4993472;28;20490;-71
2021/08/31 07:57:15;;;;;;;7.28;2.58;;;;;;;;;;4993314;28;20491;-70
2021/08/31 07:59:41;;;;;;;11.27;2.72;;;;;;;;;;4992377;28;20026;-71
2021/08/31 08:02:07;;;;;;;10.50;2.88;;;;;;;;;;4974820;28;20101;-71
2021/08/31 08:04:33;;;;;;;10.10;2.67;;;;;;;;;;4992188;28;20434;-73
2021/08/31 08:06:59;;;;;;;11.45;2.85;;;;;;;;;;4971863;28;20031;-73
2021/08/31 08:09:25;;;;;;;10.57;2.92;;;;;;;;;;4986872;28;20466;-72
2021/08/31 08:11:51;;;;;;;11.93;3.40;;;;;;;;;;4992480;28;20518;-70
2021/08/31 08:14:17;;;;;;;10.82;3.30;;;;;;;;;;4992010;28;20680;-73
2021/08/31 08:16:43;;;;;;;7.82;2.63;;;;;;;;;;4991832;28;20032;-71
2021/08/31 08:19:09;;;;;;;8.88;3.03;;;;;;;;;;4974640;28;20398;-71
2021/08/31 08:21:36;;;;;;;9.80;3.33;;;;;;;;;;4974455;28;20085;-72
2021/08/31 08:24:02;;;;;;;8.60;2.50;;;;;;;;;;4991734;28;20026;-72
2021/08/31 08:26:28;;;;;;;11.00;3.08;;;;;;;;;;4993053;28;20065;-70
2021/08/31 08:28:54;;;;;;;10.82;2.50;;;;;;;;;;4992354;28;20728;-72
2021/08/31 08:31:20;;;;;;;11.65;2.65;;;;;;;;;;4992411;28;20627;-72
2021/08/31 08:33:46;;;;;;;8.80;2.58;;;;;;;;;;4989274;28;20093;-71
2021/08/31 08:36:12;;;;;;;14.45;3.42;;;;;;;;;;4991037;28;20068;-71
2021/08/31 08:38:38;;;;;;;16.38;3.28;;;;;;;;;;4992735;28;20019;-71
2021/08/31 08:41:06;;;;;;;9.25;2.60;;;;;;;;;;4994232;28;20497;-71
2021/08/31 08:43:36;;;;;;;11.48;2.85;;;;;;;;;;4985386;28;20715;-71
2021/08/31 08:46:03;;;;;;;9.55;3.05;;;;;;;;;;4991972;28;20526;-71
2021/08/31 08:48:30;;;;;;;11.25;3.90;;;;;;;;;;4992529;28;20105;-71
2021/08/31 08:50:57;;;;;;;8.48;3.28;;;;;;;;;;4985758;28;22490;-71
2021/08/31 08:53:25;;;;;;;15.13;3.10;;;;;;;;;;4992910;28;20150;-71
2021/08/31 08:55:52;;;;;;;13.15;3.35;;;;;;;;;;4992259;28;20104;-71
2021/08/31 08:58:18;;;;;;;11.93;3.60;;;;;;;;;;4992928;28;20038;-71
2021/08/31 09:01:04;;;;;;;15.82;3.85;;;;;;;;;;4974988;28;20033;-71
2021/08/31 09:03:35;;;;;;;10.43;3.22;;;;;;;;;;4999903;28;20014;-71
2021/08/31 09:06:05;;;;;;;9.55;3.28;;;;;;;;;;4993356;28;20026;-71
2021/08/31 09:08:31;;;;;;;13.77;2.75;;;;;;;;;;4986778;28;20025;-71
2021/08/31 09:10:57;;;;;;;9.55;3.33;;;;;;;;;;4995379;28;20034;-71
2021/08/31 09:13:23;;;;;;;9.98;3.13;;;;;;;;;;4994920;28;20041;-71
2021/08/31 09:15:49;;;;;;;6.53;2.67;;;;;;;;;;4991676;28;20435;-71
2021/08/31 09:18:16;;;;;;;8.00;2.70;;;;;;;;;;4979610;28;20030;-71
2021/08/31 09:20:45;;;;;;;9.90;2.97;;;;;;;;;;4981417;28;20029;-71
2021/08/31 09:23:12;;;;;;;9.90;3.60;;;;;;;;;;4988141;28;20551;-71
2021/08/31 09:25:39;;;;;;;9.20;2.60;;;;;;;;;;4990547;28;20057;-70
2021/08/31 09:28:38;;;;;;;12.20;2.80;;;;;;;;;;4971893;28;20038;-72
2021/08/31 09:31:30;;;;;;;15.27;3.55;;;;;;;;;;4941580;28;20034;-70
2021/08/31 09:33:57;;;;;;;10.55;3.65;;;;;;;;;;4983202;28;20043;-70
2021/08/31 09:36:24;;;;;;;10.68;4.38;;;;;;;;;;4991468;28;20022;-69
2021/08/31 09:38:52;;;;;;;10.68;3.70;;;;;;;;;;4992088;28;20046;-70
2021/08/31 09:41:26;;;;;;;6.75;2.42;;;;;;;;;;4994038;28;20472;-71
2021/08/31 09:43:51;;;;;;;11.95;3.15;;;;;;;;;;4999153;28;20494;-71
2021/08/31 09:46:17;;;;;;;9.95;3.30;;;;;;;;;;4988493;28;20027;-72
2021/08/31 09:48:43;;;;;;;11.05;2.95;;;;;;;;;;4991038;28;20475;-69
2021/08/31 09:51:13;;;;;;;11.23;4.22;;;;;;;;;;4990221;28;20031;-69
2021/08/31 09:53:40;;;;;;;9.52;3.35;;;;;;;;;;4983920;28;20055;-68
2021/08/31 09:56:07;;;;;;;11.80;3.72;;;;;;;;;;4990837;28;20428;-69
2021/08/31 09:58:34;;;;;;;10.05;3.40;;;;;;;;;;4985097;28;20034;-68
2021/08/31 10:01:01;;;;;;;11.93;3.40;;;;;;;;;;4986859;28;20525;-68
2021/08/31 10:03:27;;;;;;;13.63;3.28;;;;;;;;;;4972024;28;20026;-68
2021/08/31 10:05:54;;;;;;;11.57;3.25;;;;;;;;;;4991382;28;20030;-68
2021/08/31 10:08:20;;;;;;;15.70;3.67;;;;;;;;;;4990001;28;20041;-68
2021/08/31 10:10:48;;;;;;;8.52;2.83;;;;;;;;;;4988076;28;20032;-68
2021/08/31 10:13:15;;;;;;;13.75;3.47;;;;;;;;;;4991456;28;20025;-68
2021/08/31 10:15:44;;;;;;;16.02;3.28;;;;;;;;;;4978392;28;20494;-68
2021/08/31 10:18:10;;;;;;;14.03;3.53;;;;;;;;;;4984522;28;20146;-68
2021/08/31 10:20:40;;;;;;;9.55;3.10;;;;;;;;;;4968008;28;20022;-68
2021/08/31 10:23:07;;;;;;;11.27;4.22;;;;;;;;;;4968601;28;20030;-68
2021/08/31 10:25:33;;;;;;;12.55;3.17;;;;;;;;;;4974769;28;20105;-68
2021/08/31 10:28:00;;;;;;;7.65;2.55;;;;;;;;;;4990722;28;20165;-68
2021/08/31 10:30:26;;;;;;;8.07;2.53;;;;;;;;;;4980596;28;20031;-69
2021/08/31 10:32:59;;;;;;;11.55;3.83;;;;;;;;;;4989053;28;20022;-69
2021/08/31 10:35:31;;;;;;;11.65;3.35;;;;;;;;;;4983159;28;20030;-69
2021/08/31 10:37:59;;;;;;;9.77;2.95;;;;;;;;;;4989370;28;20029;-69
2021/08/31 10:40:34;;;;;;;9.45;3.00;;;;;;;;;;4978408;28;20385;-69
2021/08/31 10:43:00;;;;;;;9.77;2.67;;;;;;;;;;4974299;28;20483;-69
2021/08/31 10:45:28;;;;;;;11.88;2.83;;;;;;;;;;4973690;28;20031;-69
2021/08/31 10:47:54;;;;;;;11.13;2.65;;;;;;;;;;4976827;28;20042;-69
2021/08/31 10:50:21;;;;;;;10.90;2.92;;;;;;;;;;4974544;28;20022;-69
2021/08/31 10:52:51;;;;;;;9.00;3.08;;;;;;;;;;4978574;28;20023;-69
2021/08/31 10:55:26;;;;;;;9.43;3.13;;;;;;;;;;4974590;28;20030;-69
2021/08/31 10:57:52;;;;;;;10.48;3.85;;;;;;;;;;4977406;28;20018;-69
2021/08/31 11:00:18;;;;;;;14.65;3.17;;;;;;;;;;4975775;28;20026;-69
2021/08/31 11:02:50;;;;;;;16.45;4.68;;;;;;;;;;4998981;28;20032;-69
2021/08/31 11:05:19;;;;;;;9.80;3.42;;;;;;;;;;4994448;28;20029;-69
2021/08/31 11:07:45;;;;;;;16.52;3.25;;;;;;;;;;4990263;28;20101;-69
2021/08/31 11:10:11;;;;;;;8.85;2.47;;;;;;;;;;4989956;28;20042;-69
2021/08/31 11:12:37;;;;;;;10.65;3.75;;;;;;;;;;4983637;28;20294;-68
2021/08/31 11:15:03;;;;;;;9.70;3.00;;;;;;;;;;4981495;28;20144;-68
2021/08/31 11:17:31;;;;;;;10.60;2.90;;;;;;;;;;4981940;28;20031;-68
2021/08/31 11:20:10;;;;;;;7.35;2.55;;;;;;;;;;4990102;28;20022;-68
2021/08/31 11:22:36;;;;;;;9.55;3.05;;;;;;;;;;5005462;28;20084;-68
2021/08/31 11:25:02;;;;;;;10.82;2.92;;;;;;;;;;5002783;28;20167;-68
2021/08/31 11:27:29;;;;;;;10.50;3.05;;;;;;;;;;4991876;28;20511;-68
2021/08/31 11:29:56;;;;;;;11.23;3.47;;;;;;;;;;4974291;28;20022;-68
2021/08/31 11:32:22;;;;;;;11.88;3.47;;;;;;;;;;4990195;28;20038;-68
2021/08/31 11:35:06;;;;;;;13.48;3.25;;;;;;;;;;4990134;28;20028;-68
2021/08/31 11:37:32;;;;;;;12.38;3.63;;;;;;;;;;4972271;28;20041;-68
2021/08/31 11:39:59;;;;;;;9.88;3.17;;;;;;;;;;4987678;28;20027;-68
2021/08/31 11:42:25;;;;;;;6.35;2.90;;;;;;;;;;4972413;28;20026;-68
2021/08/31 11:44:57;;;;;;;14.43;3.53;;;;;;;;;;4989541;28;20022;-68
2021/08/31 11:47:23;;;;;;;9.73;3.17;;;;;;;;;;4991409;28;20029;-68
2021/08/31 11:49:49;;;;;;;9.80;2.60;;;;;;;;;;4989965;28;20073;-68
2021/08/31 11:52:19;;;;;;;9.48;3.13;;;;;;;;;;4990071;28;20105;-68
2021/08/31 11:54:50;;;;;;;10.90;3.10;;;;;;;;;;4989734;28;20386;-68
2021/08/31 11:57:18;;;;;;;8.43;3.05;;;;;;;;;;4990187;28;20031;-68
2021/08/31 11:59:44;;;;;;;12.20;2.67;;;;;;;;;;4993983;28;20068;-68
2021/08/31 12:02:13;;;;;;;8.90;3.10;;;;;;;;;;4987104;28;20408;-68
2021/08/31 12:04:39;;;;;;;10.30;2.75;;;;;;;;;;4968103;28;20388;-68
2021/08/31 12:07:06;;;;;;;11.15;3.17;;;;;;;;;;4982546;28;20074;-68
2021/08/31 12:09:33;;;;;;;9.65;3.75;;;;;;;;;;4999721;28;20061;-68
2021/08/31 12:11:59;;;;;;;8.75;2.80;;;;;;;;;;4993604;28;20029;-68
2021/08/31 12:14:25;;;;;;;12.27;2.55;;;;;;;;;;4994704;28;20523;-68
2021/08/31 12:16:51;;;;;;;12.60;3.55;;;;;;;;;;4997853;28;20030;-68
2021/08/31 12:19:27;;;;;;;7.03;2.58;;;;;;;;;;4975666;28;20023;-68
2021/08/31 12:22:12;;;;;;;9.30;2.67;;;;;;;;;;4975769;28;20502;-68
2021/08/31 12:24:39;;;;;;;9.05;2.58;;;;;;;;;;4995410;28;20093;-67
2021/08/31 12:27:06;;;;;;;10.35;2.90;;;;;;;;;;4992193;28;20392;-68
2021/08/31 12:29:43;;;;;;;9.20;2.85;;;;;;;;;;5004166;28;20034;-68
2021/08/31 12:32:09;;;;;;;9.63;2.28;;;;;;;;;;4991022;28;20022;-68
2021/08/31 12:34:35;;;;;;;10.70;3.38;;;;;;;;;;4992644;28;20036;-68
2021/08/31 12:37:01;;;;;;;8.55;2.70;;;;;;;;;;4993422;28;20456;-67
2021/08/31 12:39:28;;;;;;;5.90;1.85;;;;;;;;;;4988211;28;20019;-68
2021/08/31 12:41:55;;;;;;;9.50;4.28;;;;;;;;;;4992963;28;20014;-68
2021/08/31 12:44:22;;;;;;;4.78;2.83;;;;;;;;;;4999643;28;20030;-67
2021/08/31 12:46:50;;;;;;;5.05;1.95;;;;;;;;;;4974859;28;20091;-69
2021/08/31 12:49:18;;;;;;;7.60;2.50;;;;;;;;;;4993445;28;20022;-68
2021/08/31 12:51:48;;;;;;;6.72;2.05;;;;;;;;;;4992540;28;20468;-68
2021/08/31 12:54:28;;;;;;;5.60;1.67;;;;;;;;;;4977059;28;20038;-68
2021/08/31 12:56:55;;;;;;;6.65;2.78;;;;;;;;;;4995225;28;20108;-68
2021/08/31 12:59:35;;;;;;;11.40;3.03;;;;;;;;;;4992688;28;20544;-67
2021/08/31 13:02:04;;;;;;;8.35;2.30;;;;;;;;;;4993604;28;20348;-68
2021/08/31 13:04:30;;;;;;;11.20;2.40;;;;;;;;;;4991810;28;20023;-68
2021/08/31 13:07:05;;;;;;;9.27;2.50;;;;;;;;;;4992201;28;20033;-68
2021/08/31 13:09:31;;;;;;;9.23;2.55;;;;;;;;;;4990517;28;20035;-67
2021/08/31 13:11:57;;;;;;;6.20;2.33;;;;;;;;;;4999981;28;20030;-68
2021/08/31 13:14:24;;;;;;;10.10;2.30;;;;;;;;;;4992293;28;20030;-68
2021/08/31 13:16:51;;;;;;;11.07;2.83;;;;;;;;;;4980898;28;20034;-68
2021/08/31 13:19:17;;;;;;;9.82;2.97;;;;;;;;;;4988318;28;20506;-68
2021/08/31 13:21:43;;;;;;;7.82;3.00;;;;;;;;;;5001957;28;20063;-68
2021/08/31 13:24:10;;;;;;;10.35;2.60;;;;;;;;;;4991076;28;20566;-68
2021/08/31 13:26:36;;;;;;;11.20;2.47;;;;;;;;;;5000566;28;20075;-68
2021/08/31 13:29:03;;;;;;;10.63;2.53;;;;;;;;;;4993151;28;20038;-68
2021/08/31 13:31:29;;;;;;;8.48;2.25;;;;;;;;;;4998597;28;20042;-68
2021/08/31 13:33:55;;;;;;;10.77;2.38;;;;;;;;;;4991658;28;20457;-68
2021/08/31 13:36:21;;;;;;;6.95;2.78;;;;;;;;;;4980906;28;20035;-68
2021/08/31 13:38:47;;;;;;;11.95;2.53;;;;;;;;;;4980088;28;20026;-68
2021/08/31 13:41:13;;;;;;;9.30;2.30;;;;;;;;;;4981343;28;20023;-68
2021/08/31 13:43:39;;;;;;;11.48;2.10;;;;;;;;;;4964943;28;20026;-68
2021/08/31 13:46:06;;;;;;;6.30;2.17;;;;;;;;;;4982748;28;20068;-68
2021/08/31 13:48:32;;;;;;;9.23;2.45;;;;;;;;;;4984172;28;20077;-68
2021/08/31 13:50:58;;;;;;;6.50;2.30;;;;;;;;;;4995627;28;20034;-68
2021/08/31 13:53:25;;;;;;;6.88;2.35;;;;;;;;;;4988202;28;20374;-68
2021/08/31 13:55:51;;;;;;;7.40;1.95;;;;;;;;;;4997314;28;20073;-68
2021/08/31 13:58:17;;;;;;;7.20;2.03;;;;;;;;;;4972105;28;20035;-68
2021/08/31 14:00:44;;;;;;;5.15;1.73;;;;;;;;;;4977262;28;20275;-68
2021/08/31 14:03:10;;;;;;;8.60;1.60;;;;;;;;;;4960647;28;20019;-68
2021/08/31 14:05:37;;;;;;;5.65;1.65;;;;;;;;;;4974854;28;20022;-68
2021/08/31 14:08:04;;;;;;;8.43;2.22;;;;;;;;;;4973796;28;20026;-68
2021/08/31 14:10:30;;;;;;;7.88;2.15;;;;;;;;;;4977100;28;20034;-67
2021/08/31 14:12:57;;;;;;;7.53;1.70;;;;;;;;;;4973106;28;20030;-68
2021/08/31 14:15:23;;;;;;;8.10;1.90;;;;;;;;;;4956542;28;20041;-68
2021/08/31 14:17:49;;;;;;;5.97;1.92;;;;;;;;;;4975763;28;20113;-68
2021/08/31 14:20:15;;;;;;;7.60;2.25;;;;;;;;;;4978714;28;20464;-68
2021/08/31 14:22:41;;;;;;;3.83;1.95;;;;;;;;;;4969465;28;20453;-68
2021/08/31 14:25:07;;;;;;;7.03;2.25;;;;;;;;;;4975598;28;20082;-68
2021/08/31 14:27:33;;;;;;;8.15;2.20;;;;;;;;;;4974077;28;20038;-68
2021/08/31 14:29:59;;;;;;;12.63;2.30;;;;;;;;;;4956663;28;20110;-68
2021/08/31 14:32:26;;;;;;;11.15;2.75;;;;;;;;;;4972866;28;20459;-68